createdAt,value
2019-03-20T00:00:29.498Z,1.90
2019-03-20T00:02:59.521Z,1.80
2019-03-20T00:05:28.995Z,1.70
2019-03-20T00:07:59.171Z,1.80
2019-03-20T00:10:28.364Z,1.60
2019-03-20T00:12:57.549Z,1.40
2019-03-20T00:15:26.848Z,1.73
2019-03-20T00:17:58.176Z,2.17
2019-03-20T00:20:27.646Z,1.73
2019-03-20T00:22:58.058Z,1.57
2019-03-20T00:25:27.838Z,2.00
2019-03-20T00:27:58.753Z,1.47
2019-03-20T00:30:28.329Z,1.63
2019-03-20T00:32:57.599Z,1.80
2019-03-20T00:35:27.748Z,1.83
2019-03-20T00:37:56.952Z,1.40
2019-03-20T00:40:28.830Z,1.73
2019-03-20T00:42:58.783Z,1.80
2019-03-20T00:45:28.243Z,1.90
2019-03-20T00:48:00.591Z,1.80
2019-03-20T00:50:34.788Z,1.60
2019-03-20T00:53:04.940Z,1.80
2019-03-20T00:55:38.918Z,1.60
2019-03-20T00:58:08.319Z,1.70
2019-03-20T01:00:38.634Z,1.70
2019-03-20T01:03:13.182Z,2.10
2019-03-20T01:05:42.327Z,1.80
2019-03-20T01:08:11.075Z,1.47
2019-03-20T01:10:40.450Z,1.50
2019-03-20T01:13:12.913Z,1.80
2019-03-20T01:15:42.493Z,1.37
2019-03-20T01:18:12.441Z,1.90
2019-03-20T01:20:41.774Z,1.60
2019-03-20T01:23:11.068Z,2.00
2019-03-20T01:25:40.391Z,2.03
2019-03-20T01:28:09.808Z,1.80
2019-03-20T01:30:42.519Z,1.73
2019-03-20T01:33:15.328Z,1.80
2019-03-20T01:35:46.564Z,2.43
2019-03-20T01:38:16.257Z,1.30
2019-03-20T01:40:45.553Z,2.00
2019-03-20T01:43:14.783Z,1.70
2019-03-20T01:45:45.153Z,2.10
2019-03-20T01:48:17.342Z,1.83
2019-03-20T01:50:46.057Z,1.80
2019-03-20T01:53:16.036Z,1.50
2019-03-20T01:55:45.713Z,1.90
2019-03-20T01:58:15.501Z,2.17
2019-03-20T02:00:44.390Z,2.37
2019-03-20T02:03:13.120Z,1.73
2019-03-20T02:05:41.875Z,2.37
2019-03-20T02:08:11.133Z,1.80
2019-03-20T02:10:40.620Z,1.70
2019-03-20T02:13:12.053Z,1.90
2019-03-20T02:15:42.027Z,1.80
2019-03-20T02:18:15.293Z,2.00
2019-03-20T02:20:46.407Z,1.83
2019-03-20T02:23:15.714Z,1.97
2019-03-20T02:25:44.621Z,2.20
2019-03-20T02:28:15.544Z,1.80
2019-03-20T02:30:44.341Z,2.30
2019-03-20T02:33:13.821Z,2.20
2019-03-20T02:35:51.243Z,1.93
2019-03-20T02:38:12.782Z,2.30
2019-03-20T02:40:41.383Z,2.00
2019-03-20T02:43:10.190Z,2.10
2019-03-20T02:45:39.723Z,2.00
2019-03-20T02:48:09.170Z,2.10
2019-03-20T02:50:38.273Z,1.90
2019-03-20T02:53:07.295Z,2.30
2019-03-20T02:55:36.440Z,2.07
2019-03-20T02:58:05.669Z,2.43
2019-03-20T03:00:35.062Z,1.90
2019-03-20T03:03:04.623Z,2.40
2019-03-20T03:05:33.271Z,2.00
2019-03-20T03:08:01.996Z,2.07
2019-03-20T03:10:30.639Z,2.00
2019-03-20T03:13:00.038Z,2.40
2019-03-20T03:15:28.704Z,2.80
2019-03-20T03:17:57.403Z,2.10
2019-03-20T03:20:26.136Z,2.43
2019-03-20T03:22:54.680Z,2.30
2019-03-20T03:25:23.937Z,2.27
2019-03-20T03:27:54.041Z,2.40
2019-03-20T03:30:26.852Z,2.17
2019-03-20T03:32:56.498Z,2.00
2019-03-20T03:35:28.401Z,2.40
2019-03-20T03:37:57.627Z,1.90
2019-03-20T03:40:26.559Z,2.00
2019-03-20T03:42:55.190Z,2.20
2019-03-20T03:45:23.872Z,2.20
2019-03-20T03:47:52.520Z,2.27
2019-03-20T03:50:21.557Z,1.70
2019-03-20T03:52:50.537Z,2.47
2019-03-20T03:55:19.572Z,2.10
2019-03-20T03:57:49.266Z,2.53
2019-03-20T04:00:18.974Z,2.20
2019-03-20T04:02:47.726Z,2.70
2019-03-20T04:05:16.565Z,2.40
2019-03-20T04:07:45.299Z,2.50
2019-03-20T04:10:15.262Z,2.27
2019-03-20T04:12:44.311Z,2.40
2019-03-20T04:15:14.956Z,2.27
2019-03-20T04:17:43.660Z,2.10
2019-03-20T04:20:14.335Z,2.33
2019-03-20T04:22:43.823Z,1.93
2019-03-20T04:25:13.310Z,2.50
2019-03-20T04:27:42.485Z,2.27
2019-03-20T04:30:16.691Z,2.43
2019-03-20T04:32:45.782Z,2.20
2019-03-20T04:35:16.732Z,1.83
2019-03-20T04:37:46.642Z,2.57
2019-03-20T04:40:20.420Z,2.17
2019-03-20T04:42:49.782Z,2.27
2019-03-20T04:45:18.398Z,2.03
2019-03-20T04:47:47.418Z,2.30
2019-03-20T04:50:18.308Z,2.10
2019-03-20T04:52:46.923Z,2.07
2019-03-20T04:55:15.763Z,2.37
2019-03-20T04:57:45.901Z,2.03
2019-03-20T05:00:22.287Z,2.20
2019-03-20T05:02:51.509Z,2.50
2019-03-20T05:05:20.724Z,2.13
2019-03-20T05:07:50.219Z,2.30
2019-03-20T05:10:20.289Z,2.33
2019-03-20T05:12:49.444Z,2.27
2019-03-20T05:15:19.351Z,2.47
2019-03-20T05:17:49.835Z,2.80
2019-03-20T05:20:21.185Z,2.30
2019-03-20T05:22:50.529Z,2.50
2019-03-20T05:25:19.868Z,3.00
2019-03-20T05:27:49.357Z,2.43
2019-03-20T05:30:18.585Z,2.93
2019-03-20T05:32:47.657Z,2.73
2019-03-20T05:35:16.295Z,2.80
2019-03-20T05:37:45.826Z,2.70
2019-03-20T05:40:19.168Z,2.40
2019-03-20T05:42:48.377Z,3.07
2019-03-20T05:45:21.082Z,2.73
2019-03-20T05:47:50.155Z,2.40
2019-03-20T05:50:19.363Z,3.33
2019-03-20T05:52:48.726Z,2.47
2019-03-20T05:55:19.049Z,2.70
2019-03-20T05:57:48.145Z,2.70
2019-03-20T06:00:25.028Z,2.27
2019-03-20T06:02:54.284Z,2.60
2019-03-20T06:05:23.226Z,2.33
2019-03-20T06:07:52.454Z,2.70
2019-03-20T06:10:21.646Z,2.90
2019-03-20T06:12:51.748Z,2.40
2019-03-20T06:15:20.412Z,2.27
2019-03-20T06:17:49.049Z,2.70
2019-03-20T06:20:17.586Z,2.90
2019-03-20T06:22:46.220Z,2.50
2019-03-20T06:25:15.774Z,2.10
2019-03-20T06:27:45.185Z,2.80
2019-03-20T06:30:21.279Z,2.40
2019-03-20T06:32:50.567Z,2.57
2019-03-20T06:35:20.104Z,2.70
2019-03-20T06:37:49.243Z,2.60
2019-03-20T06:40:18.555Z,2.60
2019-03-20T06:42:48.096Z,2.53
2019-03-20T06:45:18.170Z,2.63
2019-03-20T06:47:58.020Z,2.70
2019-03-20T06:50:27.344Z,2.83
2019-03-20T06:52:56.517Z,2.20
2019-03-20T06:55:25.723Z,3.10
2019-03-20T06:57:55.045Z,2.20
2019-03-20T07:00:45.021Z,2.50
2019-03-20T07:03:20.159Z,2.20
2019-03-20T07:06:05.393Z,2.37
2019-03-20T07:08:44.030Z,2.93
2019-03-20T07:11:12.957Z,2.50
2019-03-20T07:13:42.477Z,2.93
2019-03-20T07:16:11.632Z,2.87
2019-03-20T07:18:41.031Z,2.40
2019-03-20T07:21:10.553Z,2.97
2019-03-20T07:23:39.885Z,2.60
2019-03-20T07:26:09.004Z,3.00
2019-03-20T07:28:38.390Z,2.77
2019-03-20T07:31:15.382Z,2.43
2019-03-20T07:33:39.786Z,2.60
2019-03-20T07:36:08.973Z,2.80
2019-03-20T07:38:38.219Z,2.63
2019-03-20T07:41:06.818Z,2.67
2019-03-20T07:43:35.540Z,2.43
2019-03-20T07:46:04.896Z,2.70
2019-03-20T07:48:33.520Z,2.80
2019-03-20T07:51:02.209Z,2.60
2019-03-20T07:53:32.825Z,3.10
2019-03-20T07:56:02.091Z,2.60
2019-03-20T07:58:31.261Z,2.67
2019-03-20T08:01:00.856Z,2.87
2019-03-20T08:03:29.945Z,2.70
2019-03-20T08:05:59.162Z,2.50
2019-03-20T08:08:28.662Z,2.90
2019-03-20T08:10:57.941Z,2.60
2019-03-20T08:13:26.919Z,2.63
2019-03-20T08:15:56.320Z,2.60
2019-03-20T08:18:25.780Z,3.10
2019-03-20T08:20:55.189Z,3.03
2019-03-20T08:23:24.452Z,2.83
2019-03-20T08:25:53.071Z,2.80
2019-03-20T08:28:21.805Z,2.80
2019-03-20T08:30:51.399Z,2.90
2019-03-20T08:33:20.126Z,2.90
2019-03-20T08:35:48.861Z,2.73
2019-03-20T08:38:19.002Z,2.70
2019-03-20T08:40:48.642Z,3.00
2019-03-20T08:43:19.474Z,2.87
2019-03-20T08:45:48.847Z,2.90
2019-03-20T08:48:18.043Z,2.53
2019-03-20T08:50:47.030Z,2.57
2019-03-20T08:53:16.251Z,2.23
2019-03-20T08:55:45.337Z,2.50
2019-03-20T09:01:01.413Z,2.70
2019-03-20T09:03:30.821Z,2.90
2019-03-20T09:05:59.834Z,2.90
2019-03-20T09:08:29.968Z,2.37
2019-03-20T09:10:59.986Z,2.93
2019-03-20T09:13:28.539Z,3.20
2019-03-20T09:15:57.561Z,2.60
2019-03-20T09:18:26.635Z,2.73
2019-03-20T09:20:56.252Z,2.87
2019-03-20T09:23:25.311Z,2.87
2019-03-20T09:25:54.874Z,3.40
2019-03-20T09:28:24.251Z,2.70
2019-03-20T09:30:53.578Z,3.40
2019-03-20T09:33:22.847Z,3.37
2019-03-20T09:35:52.137Z,3.60
2019-03-20T09:38:21.323Z,3.00
2019-03-20T09:40:50.552Z,3.40
2019-03-20T09:43:19.862Z,2.70
2019-03-20T09:45:49.158Z,3.60
2019-03-20T09:48:20.008Z,3.53
2019-03-20T09:50:49.150Z,3.47
2019-03-20T09:53:17.955Z,3.57
2019-03-20T09:55:46.584Z,3.30
2019-03-20T09:58:15.282Z,3.07
2019-03-20T10:00:45.578Z,2.83
2019-03-20T10:03:16.118Z,3.23
2019-03-20T10:05:45.573Z,3.30
2019-03-20T10:08:14.728Z,3.17
2019-03-20T10:10:44.251Z,3.13
2019-03-20T10:13:13.634Z,3.13
2019-03-20T10:15:42.793Z,3.30
2019-03-20T10:18:12.675Z,4.50
2019-03-20T10:20:41.888Z,4.33
2019-03-20T10:23:11.519Z,4.00
2019-03-20T10:25:44.891Z,5.60
2019-03-20T10:28:11.559Z,5.90
2019-03-20T10:30:41.216Z,4.90
2019-03-20T10:33:10.754Z,4.87
2019-03-20T10:35:49.896Z,5.30
2019-03-20T10:38:11.594Z,5.40
2019-03-20T10:40:40.168Z,4.80
2019-03-20T10:43:08.789Z,4.10
2019-03-20T10:45:37.823Z,4.00
2019-03-20T10:48:08.160Z,3.10
2019-03-20T10:50:37.724Z,3.83
2019-03-20T10:53:06.987Z,4.40
2019-03-20T10:55:36.502Z,4.43
2019-03-20T10:58:05.621Z,4.17
2019-03-20T11:00:34.663Z,4.20
2019-03-20T11:03:04.154Z,3.80
2019-03-20T11:05:33.504Z,3.40
2019-03-20T11:08:02.583Z,3.50
2019-03-20T11:10:32.108Z,4.27
2019-03-20T11:13:01.503Z,4.40
2019-03-20T11:15:30.790Z,5.07
2019-03-20T11:17:59.994Z,3.50
2019-03-20T11:20:29.497Z,4.40
2019-03-20T11:22:58.041Z,4.13
2019-03-20T11:25:28.578Z,4.10
2019-03-20T11:27:57.386Z,4.03
2019-03-20T11:30:27.837Z,4.30
2019-03-20T11:32:57.664Z,3.73
2019-03-20T11:35:26.811Z,3.80
2019-03-20T11:37:56.216Z,4.10
2019-03-20T11:40:36.525Z,3.90
2019-03-20T11:43:05.976Z,4.10
2019-03-20T11:45:35.362Z,4.33
2019-03-20T11:48:05.097Z,4.03
2019-03-20T11:50:42.387Z,4.67
2019-03-20T11:53:12.937Z,4.80
2019-03-20T11:55:42.135Z,5.17
2019-03-20T11:58:14.495Z,5.10
2019-03-20T12:00:43.787Z,4.50
2019-03-20T12:03:12.715Z,4.40
2019-03-20T12:05:41.467Z,4.50
2019-03-20T12:08:10.961Z,4.03
2019-03-20T12:10:39.579Z,4.43
2019-03-20T12:13:08.648Z,4.27
2019-03-20T12:15:37.836Z,3.70
2019-03-20T12:18:07.244Z,3.97
2019-03-20T12:20:36.278Z,3.83
2019-03-20T12:23:05.627Z,4.17
2019-03-20T12:25:39.175Z,4.17
2019-03-20T12:28:08.476Z,4.50
2019-03-20T12:30:38.386Z,3.87
2019-03-20T12:33:07.404Z,4.57
2019-03-20T12:35:41.915Z,4.30
2019-03-20T12:38:14.716Z,4.60
2019-03-20T12:40:41.679Z,5.93
2019-03-20T12:43:11.192Z,6.87
2019-03-20T12:45:40.239Z,6.17
2019-03-20T12:48:10.364Z,5.30
2019-03-20T12:50:38.972Z,6.07
2019-03-20T12:53:08.793Z,6.40
2019-03-20T12:55:37.658Z,6.40
2019-03-20T12:58:06.346Z,6.97
2019-03-20T13:00:35.511Z,6.40
2019-03-20T13:03:04.648Z,5.50
2019-03-20T13:05:33.720Z,5.63
2019-03-20T13:08:06.018Z,5.47
2019-03-20T13:10:33.672Z,4.43
2019-03-20T13:13:02.834Z,5.10
2019-03-20T13:15:33.509Z,4.30
2019-03-20T13:18:02.999Z,4.50
2019-03-20T13:20:32.206Z,4.10
2019-03-20T13:23:06.755Z,5.00
2019-03-20T13:25:36.136Z,5.50
2019-03-20T13:28:07.136Z,4.40
2019-03-20T13:30:51.585Z,4.30
2019-03-20T13:33:25.595Z,4.67
2019-03-20T13:35:51.033Z,4.63
2019-03-20T13:38:19.771Z,4.40
2019-03-20T13:40:48.399Z,4.23
2019-03-20T13:43:17.973Z,4.70
2019-03-20T13:45:46.997Z,4.60
2019-03-20T13:48:16.296Z,4.83
2019-03-20T13:50:45.616Z,4.70
2019-03-20T13:53:16.629Z,4.77
2019-03-20T13:55:46.878Z,4.30
2019-03-20T13:58:16.250Z,4.27
2019-03-20T14:00:45.758Z,4.83
2019-03-20T14:03:14.861Z,4.90
2019-03-20T14:05:44.071Z,5.10
2019-03-20T14:08:12.914Z,4.73
2019-03-20T14:10:50.086Z,5.37
2019-03-20T14:13:12.629Z,5.90
2019-03-20T14:15:41.753Z,6.30
2019-03-20T14:18:10.427Z,5.80
2019-03-20T14:20:39.063Z,5.77
2019-03-20T14:23:08.252Z,5.50
2019-03-20T14:25:37.900Z,5.50
2019-03-20T14:28:07.165Z,5.93
2019-03-20T14:30:37.342Z,6.13
2019-03-20T14:33:06.672Z,5.23
2019-03-20T14:35:35.702Z,5.50
2019-03-20T14:38:04.843Z,6.40
2019-03-20T14:40:36.821Z,5.33
2019-03-20T14:43:06.123Z,5.27
2019-03-20T14:45:36.740Z,6.63
2019-03-20T14:48:05.831Z,6.00
2019-03-20T14:50:36.540Z,5.60
2019-03-20T14:53:06.721Z,5.67
2019-03-20T14:55:35.779Z,5.93
2019-03-20T14:58:04.891Z,5.93
2019-03-20T15:00:36.185Z,5.60
2019-03-20T15:03:05.845Z,4.90
2019-03-20T15:05:34.592Z,5.93
2019-03-20T15:08:03.748Z,5.50
2019-03-20T15:10:33.014Z,5.60
2019-03-20T15:13:02.107Z,5.70
2019-03-20T15:15:39.729Z,5.83
2019-03-20T15:18:08.981Z,5.23
2019-03-20T15:20:38.915Z,5.57
2019-03-20T15:23:08.222Z,5.10
2019-03-20T15:25:37.468Z,5.20
2019-03-20T15:28:10.965Z,4.80
2019-03-20T15:30:39.955Z,4.87
2019-03-20T15:33:09.054Z,5.73
2019-03-20T15:35:38.568Z,5.20
2019-03-20T15:38:08.019Z,5.90
2019-03-20T15:40:37.658Z,5.07
2019-03-20T15:43:06.835Z,5.27
2019-03-20T15:45:36.104Z,4.40
2019-03-20T15:48:04.975Z,5.27
2019-03-20T15:50:33.649Z,4.40
2019-03-20T15:53:02.668Z,4.53
2019-03-20T15:55:42.175Z,5.90
2019-03-20T15:58:18.345Z,5.43
2019-03-20T16:00:47.709Z,5.10
2019-03-20T16:03:22.849Z,5.70
2019-03-20T16:05:52.114Z,3.83
2019-03-20T16:08:21.549Z,4.10
2019-03-20T16:10:51.754Z,3.97
2019-03-20T16:13:20.957Z,3.53
2019-03-20T16:15:50.224Z,3.20
2019-03-20T16:18:19.739Z,4.03
2019-03-20T16:20:50.137Z,3.07
2019-03-20T16:23:19.367Z,3.23
2019-03-20T16:25:48.918Z,2.87
2019-03-20T16:28:18.176Z,2.87
2019-03-20T16:30:47.761Z,3.50
2019-03-20T16:33:16.375Z,4.20
2019-03-20T16:35:45.129Z,3.03
2019-03-20T16:38:14.457Z,3.70
2019-03-20T16:40:45.157Z,3.20
2019-03-20T16:43:15.758Z,2.67
2019-03-20T16:45:45.193Z,2.93
2019-03-20T16:48:14.052Z,2.80
2019-03-20T16:50:43.444Z,2.43
2019-03-20T16:53:12.557Z,2.90
2019-03-20T16:55:41.658Z,2.60
2019-03-20T16:58:11.559Z,2.63
2019-03-20T17:00:41.726Z,2.80
2019-03-20T17:03:10.703Z,2.70
2019-03-20T17:05:40.116Z,2.60
2019-03-20T17:08:10.172Z,2.57
2019-03-20T17:10:46.041Z,2.70
2019-03-20T17:13:15.310Z,2.43
2019-03-20T17:15:45.003Z,2.97
2019-03-20T17:18:14.290Z,2.87
2019-03-20T17:20:43.370Z,2.20
2019-03-20T17:23:12.342Z,2.57
2019-03-20T17:25:41.400Z,2.60
2019-03-20T17:28:11.428Z,2.60
2019-03-20T17:30:42.685Z,2.93
2019-03-20T17:33:12.329Z,2.37
2019-03-20T17:35:41.531Z,3.00
2019-03-20T17:38:11.547Z,2.30
2019-03-20T17:40:40.751Z,2.90
2019-03-20T17:43:10.068Z,2.47
2019-03-20T17:45:39.417Z,2.57
2019-03-20T17:48:08.779Z,2.23
2019-03-20T17:50:37.827Z,2.30
2019-03-20T17:53:07.118Z,2.37
2019-03-20T17:55:37.487Z,2.27
2019-03-20T17:58:06.673Z,2.30
2019-03-20T18:00:43.341Z,2.23
2019-03-20T18:03:12.285Z,2.00
2019-03-20T18:05:41.102Z,2.57
2019-03-20T18:08:10.108Z,1.93
2019-03-20T18:10:39.529Z,2.30
2019-03-20T18:13:08.798Z,1.97
2019-03-20T18:15:38.134Z,2.40
2019-03-20T18:18:08.411Z,2.27
2019-03-20T18:20:46.428Z,1.90
2019-03-20T18:23:17.061Z,2.10
2019-03-20T18:25:47.473Z,1.97
2019-03-20T18:28:16.778Z,1.60
2019-03-20T18:30:46.894Z,2.00
2019-03-20T18:33:16.214Z,2.00
2019-03-20T18:35:46.561Z,1.57
2019-03-20T18:38:16.051Z,1.70
2019-03-20T18:40:45.228Z,1.77
2019-03-20T18:43:15.555Z,2.00
2019-03-20T18:45:44.185Z,1.90
2019-03-20T18:48:13.625Z,1.87
2019-03-20T18:50:42.928Z,2.40
2019-03-20T18:53:11.984Z,2.20
2019-03-20T18:55:41.303Z,1.73
2019-03-20T18:58:10.595Z,1.83
2019-03-20T19:00:40.812Z,1.90
2019-03-20T19:03:21.715Z,1.87
2019-03-20T19:05:54.145Z,1.73
2019-03-20T19:08:24.450Z,1.77
2019-03-20T19:10:53.516Z,1.87
2019-03-20T19:13:24.551Z,2.10
2019-03-20T19:15:54.429Z,1.77
2019-03-20T19:18:23.793Z,2.03
2019-03-20T19:20:53.275Z,1.93
2019-03-20T19:23:22.970Z,1.80
2019-03-20T19:25:52.621Z,1.67
2019-03-20T19:28:22.567Z,1.80
2019-03-20T19:30:51.818Z,1.90
2019-03-20T19:33:21.158Z,2.03
2019-03-20T19:35:50.028Z,2.07
2019-03-20T19:38:19.424Z,1.97
2019-03-20T19:40:48.874Z,2.37
2019-03-20T19:43:19.311Z,2.00
2019-03-20T19:45:48.729Z,2.20
2019-03-20T19:48:17.940Z,1.90
2019-03-20T19:50:47.215Z,1.73
2019-03-20T19:53:16.405Z,2.00
2019-03-20T19:55:45.928Z,1.70
2019-03-20T19:58:15.209Z,1.80
2019-03-20T20:00:44.327Z,1.80
2019-03-20T20:03:13.605Z,2.00
2019-03-20T20:05:42.914Z,1.53
2019-03-20T20:08:12.939Z,2.17
2019-03-20T20:10:42.119Z,2.17
2019-03-20T20:13:10.784Z,1.80
2019-03-20T20:15:39.545Z,1.57
2019-03-20T20:18:08.591Z,1.67
2019-03-20T20:20:38.641Z,1.80
2019-03-20T20:23:07.854Z,1.77
2019-03-20T20:25:36.972Z,1.80
2019-03-20T20:28:05.989Z,1.67
2019-03-20T20:30:37.487Z,1.50
2019-03-20T20:33:06.558Z,2.20
2019-03-20T20:35:35.973Z,2.00
2019-03-20T20:38:06.153Z,1.70
2019-03-20T20:40:36.135Z,1.67
2019-03-20T20:43:05.039Z,1.90
2019-03-20T20:45:34.375Z,1.67
2019-03-20T20:48:03.649Z,1.57
2019-03-20T20:50:32.769Z,1.60
2019-03-20T20:53:02.088Z,1.87
2019-03-20T20:55:31.641Z,1.67
2019-03-20T20:58:00.283Z,1.73
2019-03-20T21:00:29.424Z,1.90
2019-03-20T21:02:58.908Z,2.53
2019-03-20T21:05:27.624Z,1.43
2019-03-20T21:07:57.067Z,1.70
2019-03-20T21:10:28.276Z,1.70
2019-03-20T21:13:01.440Z,1.40
2019-03-20T21:15:45.589Z,1.73
2019-03-20T21:18:23.858Z,1.53
2019-03-20T21:20:53.041Z,1.57
2019-03-20T21:23:41.116Z,1.80
2019-03-20T21:29:25.181Z,1.60
2019-03-20T21:32:00.553Z,1.57
2019-03-20T21:34:47.745Z,1.87
2019-03-20T21:37:42.062Z,1.63
2019-03-20T21:40:12.189Z,1.77
2019-03-20T21:43:07.436Z,1.77
2019-03-20T21:46:03.669Z,1.70
2019-03-20T21:48:32.302Z,1.80
2019-03-20T21:51:14.940Z,1.30
2019-03-20T21:53:52.559Z,1.90
2019-03-20T21:56:27.009Z,1.50
2019-03-20T21:58:58.995Z,1.47
2019-03-20T22:01:50.582Z,1.77
2019-03-20T22:04:19.953Z,1.60
2019-03-20T22:06:59.726Z,1.80
2019-03-20T22:09:32.085Z,1.70
2019-03-20T22:12:37.668Z,1.47
2019-03-20T22:15:12.490Z,1.70
2019-03-20T22:18:02.881Z,1.50
2019-03-20T22:20:46.845Z,1.87
2019-03-20T22:23:51.098Z,1.40
2019-03-20T22:26:37.676Z,1.67
2019-03-20T22:29:26.712Z,1.70
2019-03-20T22:32:14.837Z,1.70
2019-03-20T22:34:59.116Z,1.50
2019-03-20T22:37:28.321Z,1.60
2019-03-20T22:40:15.689Z,1.93
2019-03-20T22:42:56.807Z,1.77
2019-03-20T22:46:02.457Z,1.70
2019-03-20T22:48:59.394Z,1.73
2019-03-20T22:51:37.990Z,1.77
2019-03-20T22:54:26.445Z,1.90
2019-03-20T22:57:17.881Z,2.00
2019-03-20T22:59:47.395Z,2.37
2019-03-20T23:02:19.461Z,2.00
2019-03-20T23:04:51.834Z,2.90
2019-03-20T23:07:20.620Z,2.90
2019-03-20T23:09:49.337Z,3.60
2019-03-20T23:12:19.484Z,3.43
2019-03-20T23:14:48.627Z,2.40
2019-03-20T23:17:17.804Z,2.10
2019-03-20T23:19:47.114Z,1.87
2019-03-20T23:22:16.343Z,2.53
2019-03-20T23:24:46.311Z,1.60
2019-03-20T23:27:18.425Z,1.60
2019-03-20T23:29:47.496Z,1.83
2019-03-20T23:32:16.606Z,1.60
2019-03-20T23:34:46.069Z,1.80
2019-03-20T23:37:15.830Z,1.80
2019-03-20T23:39:45.019Z,1.63
2019-03-20T23:42:14.078Z,1.67
2019-03-20T23:44:43.396Z,2.00
2019-03-20T23:47:12.489Z,1.60
2019-03-20T23:49:42.664Z,2.37
2019-03-20T23:52:12.242Z,2.00
2019-03-20T23:54:44.781Z,1.90
2019-03-20T23:57:13.526Z,2.00
2019-03-20T23:59:42.258Z,1.77
